KSIK/SIK METAR and TAF weather

Enter ICAO airport designator
Station Type Date Time Source
KSIK METAR 2019/02/18 04:35 UTC NOAA

KSIK 180435Z AUTO 32009KT 10SM CLR 00/M02 A3008 RMK AO2


Station Type Date Time Source
KSIK Decoded METAR 2019/02/18 04:35 UTC NOAA

Station name not available
Feb 17, 2019 - 11:35 PM EST / 2019.02.18 0435 UTC
Wind: from the NW (320 degrees) at 10 MPH (9 KT):0
Visibility: 10 mile(s):0
Sky conditions: clear
Temperature: 32 F (0 C)
Windchill: 23 F (-5 C):1
Dew Point: 28 F (-2 C)
Relative Humidity: 86%
Pressure (altimeter): 30.08 in. Hg (1018 hPa)
ob: KSIK 180435Z AUTO 32009KT 10SM CLR 00/M02 A3008 RMK AO2
cycle: 4

Station Type Date Time Source
KSIK TAF UTC NOAA

Error!


Example: see airport list